createdAt,value
2023-05-24T00:18:13.904Z,101117.31
2023-05-24T00:20:41.125Z,101110.41
2023-05-24T00:23:08.305Z,101109.25
2023-05-24T00:25:35.411Z,101110.25
2023-05-24T00:28:02.184Z,101114.38
2023-05-24T00:30:28.973Z,101107.09
2023-05-24T00:32:55.932Z,101100.97
2023-05-24T00:35:23.412Z,101114.03
2023-05-24T00:37:50.823Z,101103.88
2023-05-24T00:40:17.864Z,101102.44
2023-05-24T00:42:44.625Z,101110.50
2023-05-24T00:45:11.605Z,101104.38
2023-05-24T00:47:38.609Z,101106.59
2023-05-24T00:50:07.702Z,101101.06
2023-05-24T00:52:36.412Z,101104.38
2023-05-24T00:55:03.573Z,101099.56
2023-05-24T00:57:30.606Z,101102.06
2023-05-24T00:59:57.447Z,101096.16
2023-05-24T01:02:25.450Z,101097.38
2023-05-24T01:04:52.334Z,101089.53
2023-05-24T01:07:23.648Z,101101.94
2023-05-24T01:10:08.799Z,101099.72
2023-05-24T01:13:10.644Z,101095.13
2023-05-24T01:15:54.427Z,101091.94
2023-05-24T01:18:30.395Z,101091.94
2023-05-24T01:21:14.444Z,101101.13
2023-05-24T01:24:14.403Z,101101.75
2023-05-24T01:26:59.608Z,101110.88
2023-05-24T01:29:27.124Z,101113.38
2023-05-24T01:31:54.069Z,101110.03
2023-05-24T01:34:21.011Z,101100.16
2023-05-24T01:36:47.791Z,101105.44
2023-05-24T01:39:14.649Z,101108.56
2023-05-24T01:41:57.147Z,101105.13
2023-05-24T01:44:53.139Z,101110.72
2023-05-24T01:47:32.060Z,101097.06
2023-05-24T01:50:07.281Z,101103.69
2023-05-24T01:52:35.946Z,101100.19
2023-05-24T01:55:04.866Z,101095.84
2023-05-24T01:57:34.865Z,101101.88
2023-05-24T02:00:03.615Z,101088.06
2023-05-24T02:02:39.809Z,101093.03
2023-05-24T02:05:07.701Z,101089.94
2023-05-24T02:07:35.157Z,101085.59
2023-05-24T02:10:02.197Z,101089.34
2023-05-24T02:12:29.127Z,101087.28
2023-05-24T02:14:57.286Z,101092.25
2023-05-24T02:17:27.037Z,101083.56
2023-05-24T02:19:54.013Z,101083.75
2023-05-24T02:22:22.390Z,101077.50
2023-05-24T02:24:49.293Z,101080.63
2023-05-24T02:27:16.141Z,101073.38
2023-05-24T02:29:43.152Z,101081.69
2023-05-24T02:32:10.047Z,101068.69
2023-05-24T02:34:37.195Z,101079.41
2023-05-24T02:37:04.827Z,101075.25
2023-05-24T02:39:31.896Z,101076.28
2023-05-24T02:41:58.882Z,101076.06
2023-05-24T02:44:25.760Z,101077.69
2023-05-24T02:46:52.621Z,101069.69
2023-05-24T02:49:19.393Z,101071.53
2023-05-24T02:51:46.685Z,101075.03
2023-05-24T02:54:14.880Z,101075.94
2023-05-24T02:56:41.771Z,101061.25
2023-05-24T02:59:08.767Z,101063.16
2023-05-24T03:01:35.786Z,101072.03
2023-05-24T03:04:03.410Z,101067.88
2023-05-24T03:06:31.166Z,101061.06
2023-05-24T03:08:58.555Z,101066.44
2023-05-24T03:11:27.317Z,101065.63
2023-05-24T03:13:54.162Z,101064.56
2023-05-24T03:16:21.216Z,101059.00
2023-05-24T03:18:50.818Z,101063.09
2023-05-24T03:21:20.897Z,101065.19
2023-05-24T03:23:48.083Z,101063.75
2023-05-24T03:26:14.909Z,101061.06
2023-05-24T03:28:42.014Z,101064.16
2023-05-24T03:31:09.448Z,101064.16
2023-05-24T03:33:37.201Z,101065.41
2023-05-24T03:36:04.648Z,101066.03
2023-05-24T03:38:33.688Z,101067.25
2023-05-24T03:41:00.841Z,101069.34
2023-05-24T03:43:28.872Z,101063.16
2023-05-24T03:45:58.120Z,101070.16
2023-05-24T03:48:25.028Z,101065.25
2023-05-24T03:50:52.924Z,101069.38
2023-05-24T03:53:22.868Z,101074.38
2023-05-24T03:55:50.178Z,101064.88
2023-05-24T03:58:16.984Z,101073.94
2023-05-24T04:00:44.804Z,101069.59
2023-05-24T04:03:13.104Z,101065.72
2023-05-24T04:05:40.152Z,101076.44
2023-05-24T04:08:07.094Z,101072.94
2023-05-24T04:10:37.017Z,101069.41
2023-05-24T04:13:03.994Z,101067.56
2023-05-24T04:15:31.326Z,101070.06
2023-05-24T04:17:58.182Z,101071.09
2023-05-24T04:20:25.814Z,101066.13
2023-05-24T04:22:52.941Z,101064.69
2023-05-24T04:25:20.423Z,101076.44
2023-05-24T04:27:51.025Z,101078.97
2023-05-24T04:30:17.954Z,101075.88
2023-05-24T04:32:44.764Z,101076.06
2023-05-24T04:35:12.330Z,101067.13
2023-05-24T04:37:40.484Z,101071.47
2023-05-24T04:40:08.271Z,101075.22
2023-05-24T04:42:35.584Z,101071.06
2023-05-24T04:45:02.487Z,101073.56
2023-05-24T04:47:29.414Z,101074.00
2023-05-24T04:49:56.240Z,101073.38
2023-05-24T04:52:23.105Z,101066.91
2023-05-24T04:54:51.128Z,101081.38
2023-05-24T04:57:18.055Z,101070.19
2023-05-24T04:59:45.062Z,101075.38
2023-05-24T05:02:12.131Z,101067.25
2023-05-24T05:04:38.999Z,101066.44
2023-05-24T05:07:06.234Z,101064.22
2023-05-24T05:09:33.086Z,101062.97
2023-05-24T05:11:59.934Z,101065.00
2023-05-24T05:14:26.778Z,101056.94
2023-05-24T05:16:53.645Z,101070.56
2023-05-24T05:19:20.917Z,101064.75
2023-05-24T05:21:47.818Z,101064.13
2023-05-24T05:24:16.237Z,101064.97
2023-05-24T05:26:43.110Z,101067.63
2023-05-24T05:29:09.921Z,101059.72
2023-05-24T05:31:37.106Z,101059.53
2023-05-24T05:34:03.979Z,101064.25
2023-05-24T05:36:31.189Z,101059.25
2023-05-24T05:38:58.054Z,101059.22
2023-05-24T05:41:24.917Z,101062.31
2023-05-24T05:43:51.730Z,101062.28
2023-05-24T05:46:20.959Z,101063.41
2023-05-24T05:48:47.836Z,101064.81
2023-05-24T05:51:14.648Z,101066.72
2023-05-24T05:53:41.400Z,101069.38
2023-05-24T05:56:08.293Z,101068.53
2023-05-24T05:58:35.091Z,101069.16
2023-05-24T06:01:01.950Z,101066.81
2023-05-24T06:03:29.021Z,101069.75
2023-05-24T06:05:56.032Z,101071.19
2023-05-24T06:08:22.947Z,101073.41
2023-05-24T06:10:52.006Z,101076.13
2023-05-24T06:13:19.745Z,101074.47
2023-05-24T06:15:46.694Z,101070.66
2023-05-24T06:18:13.786Z,101074.16
2023-05-24T06:20:40.804Z,101067.81
2023-05-24T06:23:07.864Z,101070.47
2023-05-24T06:25:35.138Z,101072.13
2023-05-24T06:28:01.964Z,101073.38
2023-05-24T06:30:28.771Z,101075.84
2023-05-24T06:32:56.470Z,101068.97
2023-05-24T06:35:23.328Z,101073.16
2023-05-24T06:37:50.201Z,101064.03
2023-05-24T06:40:17.078Z,101074.59
2023-05-24T06:42:43.951Z,101069.66
2023-05-24T06:45:11.324Z,101074.06
2023-05-24T06:47:38.422Z,101070.38
2023-05-24T06:50:06.010Z,101072.59
2023-05-24T06:52:32.839Z,101077.97
2023-05-24T06:54:59.665Z,101075.31
2023-05-24T06:57:27.095Z,101069.22
2023-05-24T06:59:53.982Z,101065.88
2023-05-24T07:02:26.670Z,101072.94
2023-05-24T07:04:53.765Z,101076.19
2023-05-24T07:07:21.377Z,101071.03
2023-05-24T07:09:50.094Z,101069.47
2023-05-24T07:12:17.047Z,101068.34
2023-05-24T07:14:43.883Z,101062.81
2023-05-24T07:17:10.817Z,101066.56
2023-05-24T07:19:37.800Z,101069.56
2023-05-24T07:22:04.648Z,101062.78
2023-05-24T07:24:31.527Z,101069.59
2023-05-24T07:26:58.543Z,101066.00
2023-05-24T07:29:26.123Z,101077.03
2023-05-24T07:31:55.921Z,101069.78
2023-05-24T07:34:23.887Z,101068.47
2023-05-24T07:36:50.668Z,101073.44
2023-05-24T07:39:17.560Z,101079.41
2023-05-24T07:41:44.914Z,101072.38
2023-05-24T07:44:12.274Z,101074.94
2023-05-24T07:46:39.550Z,101083.75
2023-05-24T07:49:07.083Z,101075.38
2023-05-24T07:51:34.120Z,101073.84
2023-05-24T07:54:01.133Z,101073.69
2023-05-24T07:56:28.034Z,101073.44
2023-05-24T07:58:59.450Z,101074.72
2023-05-24T08:01:26.267Z,101080.63
2023-05-24T08:03:53.196Z,101077.16
2023-05-24T08:06:20.238Z,101080.81
2023-05-24T08:08:47.826Z,101075.38
2023-05-24T08:11:14.668Z,101069.72
2023-05-24T08:13:41.637Z,101079.28
2023-05-24T08:16:08.539Z,101077.53
2023-05-24T08:18:35.435Z,101077.59
2023-05-24T08:21:02.545Z,101074.16
2023-05-24T08:23:32.668Z,101076.34
2023-05-24T08:25:59.949Z,101070.09
2023-05-24T08:28:27.340Z,101071.72
2023-05-24T08:30:54.261Z,101069.47
2023-05-24T08:33:22.965Z,101062.03
2023-05-24T08:35:51.269Z,101065.44
2023-05-24T08:38:18.651Z,101066.09
2023-05-24T08:40:46.031Z,101063.25
2023-05-24T08:43:12.977Z,101060.94
2023-05-24T08:45:40.211Z,101061.88
2023-05-24T08:48:08.020Z,101059.47
2023-05-24T08:50:35.455Z,101059.59
2023-05-24T08:53:03.004Z,101053.59
2023-05-24T08:55:39.718Z,101062.06
2023-05-24T08:58:07.239Z,101060.41
2023-05-24T09:00:34.003Z,101062.25
2023-05-24T09:03:01.866Z,101060.19
2023-05-24T09:05:30.280Z,101056.44
2023-05-24T09:07:59.782Z,101065.25
2023-05-24T09:10:35.422Z,101063.69
2023-05-24T09:13:09.351Z,101065.53
2023-05-24T09:15:36.790Z,101062.66
2023-05-24T09:18:03.759Z,101065.53
2023-05-24T09:20:30.674Z,101063.94
2023-05-24T09:22:59.185Z,101066.41
2023-05-24T09:25:28.173Z,101069.47
2023-05-24T09:27:55.079Z,101056.16
2023-05-24T09:30:22.455Z,101062.44
2023-05-24T09:33:00.289Z,101070.41
2023-05-24T09:35:28.408Z,101069.06
2023-05-24T09:37:57.495Z,101058.19
2023-05-24T09:40:24.552Z,101069.31
2023-05-24T09:43:10.101Z,101067.72
2023-05-24T09:45:47.358Z,101073.16
2023-05-24T09:48:16.629Z,101076.16
2023-05-24T09:50:47.640Z,101077.34
2023-05-24T09:53:18.270Z,101069.72
2023-05-24T09:55:45.471Z,101071.16
2023-05-24T09:58:13.004Z,101071.69
2023-05-24T10:00:41.638Z,101083.94
2023-05-24T10:03:13.334Z,101082.88
2023-05-24T10:05:44.822Z,101071.00
2023-05-24T10:08:12.103Z,101073.72
2023-05-24T10:10:38.904Z,101069.09
2023-05-24T10:13:05.836Z,101083.03
2023-05-24T10:15:32.729Z,101078.13
2023-05-24T10:18:09.790Z,101081.94
2023-05-24T10:20:41.462Z,101081.63
2023-05-24T10:23:11.222Z,101082.16
2023-05-24T10:25:44.990Z,101078.59
2023-05-24T10:28:14.094Z,101085.00
2023-05-24T10:31:09.234Z,101081.25
2023-05-24T10:33:40.077Z,101079.69
2023-05-24T10:36:09.995Z,101088.72
2023-05-24T10:38:40.627Z,101081.09
2023-05-24T10:41:13.154Z,101079.31
2023-05-24T10:43:40.644Z,101085.06
2023-05-24T10:46:10.744Z,101083.22
2023-05-24T10:48:39.282Z,101091.16
2023-05-24T10:51:35.482Z,101088.66
2023-05-24T10:54:15.931Z,101084.44
2023-05-24T10:56:46.844Z,101094.28
2023-05-24T10:59:39.679Z,101089.56
2023-05-24T11:02:16.513Z,101098.09
2023-05-24T11:04:46.739Z,101097.47
2023-05-24T11:07:19.389Z,101089.34
2023-05-24T11:09:52.883Z,101093.81
2023-05-24T11:12:23.629Z,101095.94
2023-05-24T11:14:53.093Z,101094.00
2023-05-24T11:17:23.953Z,101091.41
2023-05-24T11:19:55.697Z,101095.72
2023-05-24T11:22:23.551Z,101096.56
2023-05-24T11:24:52.395Z,101099.06
2023-05-24T11:27:19.597Z,101101.03
2023-05-24T11:29:48.278Z,101092.38
2023-05-24T11:32:17.187Z,101097.72
2023-05-24T11:34:46.933Z,101095.81
2023-05-24T11:37:16.782Z,101111.28
2023-05-24T11:39:44.498Z,101100.44
2023-05-24T11:42:11.295Z,101107.25
2023-05-24T11:44:38.597Z,101094.44
2023-05-24T11:47:07.548Z,101094.59
2023-05-24T11:49:34.953Z,101088.91
2023-05-24T11:52:02.616Z,101092.56
2023-05-24T11:54:31.902Z,101089.91
2023-05-24T11:56:58.889Z,101096.88
2023-05-24T11:59:28.028Z,101104.47
2023-05-24T12:02:05.680Z,101100.44
2023-05-24T12:04:34.051Z,101104.22
2023-05-24T12:07:01.707Z,101105.88
2023-05-24T12:09:28.846Z,101104.66
2023-05-24T12:11:57.662Z,101093.19
2023-05-24T12:14:35.866Z,101089.78
2023-05-24T12:17:02.751Z,101072.91
2023-05-24T12:19:34.511Z,101070.47
2023-05-24T12:22:08.235Z,101070.69
2023-05-24T12:24:35.853Z,101065.94
2023-05-24T12:27:07.629Z,101066.72
2023-05-24T12:29:37.055Z,101070.28
2023-05-24T12:32:04.359Z,101073.59
2023-05-24T12:34:31.516Z,101085.38
2023-05-24T12:36:59.541Z,101081.88
2023-05-24T12:39:32.246Z,101072.38
2023-05-24T12:42:01.950Z,101065.75
2023-05-24T12:44:34.077Z,101056.66
2023-05-24T12:47:02.637Z,101056.47
2023-05-24T12:49:29.831Z,101054.50
2023-05-24T12:51:57.275Z,101061.47
2023-05-24T12:54:28.288Z,101057.91
2023-05-24T12:56:56.975Z,101061.41
2023-05-24T12:59:24.609Z,101058.16
2023-05-24T13:01:52.160Z,101058.53
2023-05-24T13:04:21.056Z,101057.44
2023-05-24T13:06:48.348Z,101061.50
2023-05-24T13:09:18.878Z,101068.41
2023-05-24T13:11:45.794Z,101068.81
2023-05-24T13:14:12.754Z,101079.00
2023-05-24T13:16:39.835Z,101067.38
2023-05-24T13:19:06.855Z,101089.81
2023-05-24T13:21:34.010Z,101088.66
2023-05-24T13:24:01.062Z,101095.69
2023-05-24T13:26:27.993Z,101090.78
2023-05-24T13:29:22.456Z,101077.09
2023-05-24T13:31:41.969Z,101075.19
2023-05-24T13:34:10.890Z,101082.19
2023-05-24T13:36:40.741Z,101082.19
2023-05-24T13:41:41.403Z,101098.41
2023-05-24T13:44:08.806Z,101102.56
2023-05-24T13:46:36.538Z,101104.25
2023-05-24T13:49:03.749Z,101099.00
2023-05-24T13:51:30.827Z,101105.50
2023-05-24T13:53:57.898Z,101093.38
2023-05-24T13:56:26.041Z,101100.97
2023-05-24T13:58:53.719Z,101094.34
2023-05-24T14:01:21.055Z,101087.34
2023-05-24T14:03:48.138Z,101089.53
2023-05-24T14:06:15.048Z,101090.44
2023-05-24T14:08:42.660Z,101092.63
2023-05-24T14:11:09.722Z,101090.25
2023-05-24T14:16:08.780Z,101099.28
2023-05-24T14:18:36.060Z,101090.34
2023-05-24T14:21:03.047Z,101085.50
2023-05-24T14:23:31.986Z,101090.78
2023-05-24T14:25:59.258Z,101109.53
2023-05-24T14:28:26.391Z,101113.03
2023-05-24T14:30:53.316Z,101109.06
2023-05-24T14:33:20.116Z,101110.09
2023-05-24T14:35:47.222Z,101114.50
2023-05-24T14:38:14.202Z,101118.09
2023-05-24T14:40:41.076Z,101129.84
2023-05-24T14:43:10.423Z,101126.75
2023-05-24T14:45:42.300Z,101124.59
2023-05-24T14:48:13.515Z,101127.94
2023-05-24T14:50:41.274Z,101123.97
2023-05-24T14:53:14.272Z,101132.88
2023-05-24T14:55:43.419Z,101137.53
2023-05-24T14:58:12.163Z,101127.91
2023-05-24T15:00:39.986Z,101135.28
2023-05-24T15:03:08.349Z,101135.00
2023-05-24T15:05:36.300Z,101136.91
2023-05-24T15:08:03.651Z,101132.94
2023-05-24T15:10:30.604Z,101125.09
2023-05-24T15:12:57.417Z,101123.94
2023-05-24T15:15:24.255Z,101118.78
2023-05-24T15:17:51.115Z,101108.44
2023-05-24T15:20:19.598Z,101106.63
2023-05-24T15:22:46.664Z,101107.31
2023-05-24T15:25:13.774Z,101105.47
2023-05-24T15:27:40.831Z,101110.13
2023-05-24T15:30:08.217Z,101106.09
2023-05-24T15:32:35.046Z,101106.69
2023-05-24T15:35:02.116Z,101115.34
2023-05-24T15:37:28.956Z,101122.91
2023-05-24T15:39:55.812Z,101118.19
2023-05-24T15:42:24.628Z,101106.75
2023-05-24T15:44:51.778Z,101106.19
2023-05-24T15:47:22.000Z,101097.25
2023-05-24T15:49:49.851Z,101094.56
2023-05-24T15:52:16.996Z,101090.00
2023-05-24T15:54:44.107Z,101088.84
2023-05-24T15:57:11.007Z,101081.25
2023-05-24T15:59:38.721Z,101076.66
2023-05-24T16:02:09.425Z,101079.13
2023-05-24T16:04:36.386Z,101077.34
2023-05-24T16:07:03.344Z,101078.00
2023-05-24T16:09:30.228Z,101085.09
2023-05-24T16:11:57.057Z,101080.88
2023-05-24T16:14:26.082Z,101084.59
2023-05-24T16:16:53.025Z,101093.38
2023-05-24T16:19:20.029Z,101086.94
2023-05-24T16:21:47.015Z,101088.44
2023-05-24T16:24:13.892Z,101081.59
2023-05-24T16:26:40.759Z,101087.13
2023-05-24T16:29:07.641Z,101089.34
2023-05-24T16:31:34.563Z,101081.84
2023-05-24T16:34:01.558Z,101074.75
2023-05-24T16:36:28.557Z,101063.59
2023-05-24T16:38:55.512Z,101066.88
2023-05-24T16:41:22.329Z,101067.66
2023-05-24T16:43:49.351Z,101061.72
2023-05-24T16:46:16.198Z,101056.84
2023-05-24T16:48:43.101Z,101053.59
2023-05-24T16:51:09.885Z,101049.03
2023-05-24T16:53:36.844Z,101047.72
2023-05-24T16:56:03.638Z,101052.13
2023-05-24T16:58:30.988Z,101051.31
2023-05-24T17:00:58.530Z,101053.44
2023-05-24T17:03:29.773Z,101053.16
2023-05-24T17:06:01.951Z,101053.69
2023-05-24T17:08:33.495Z,101062.28
2023-05-24T17:11:00.442Z,101055.72
2023-05-24T17:13:30.312Z,101063.16
2023-05-24T17:15:57.672Z,101064.25
2023-05-24T17:18:28.436Z,101059.19
2023-05-24T17:21:05.888Z,101057.44
2023-05-24T17:23:35.011Z,101061.03
2023-05-24T17:26:02.927Z,101061.06
2023-05-24T17:28:30.446Z,101059.66
2023-05-24T17:30:59.677Z,101060.00
2023-05-24T17:33:28.848Z,101059.94
2023-05-24T17:35:56.614Z,101053.13
2023-05-24T17:38:25.299Z,101052.38
2023-05-24T17:40:59.834Z,101047.91
2023-05-24T17:43:32.434Z,101055.59
2023-05-24T17:46:06.094Z,101046.63
2023-05-24T17:48:34.975Z,101039.41
2023-05-24T17:51:03.697Z,101038.31
2023-05-24T17:53:32.459Z,101036.19
2023-05-24T17:55:59.660Z,101034.38
2023-05-24T17:58:27.000Z,101034.38
2023-05-24T18:00:53.889Z,101030.31
2023-05-24T18:03:20.986Z,101033.03
2023-05-24T18:05:47.908Z,101033.63
2023-05-24T18:08:14.791Z,101038.56
2023-05-24T18:10:41.702Z,101039.16
2023-05-24T18:13:09.442Z,101035.59
2023-05-24T18:15:36.631Z,101040.75
2023-05-24T18:18:04.006Z,101040.53
2023-05-24T18:20:31.059Z,101037.25
2023-05-24T18:22:58.170Z,101038.31
2023-05-24T18:25:25.158Z,101042.66
2023-05-24T18:27:51.920Z,101039.44
2023-05-24T18:30:18.839Z,101043.97
2023-05-24T18:33:02.761Z,101040.22
2023-05-24T18:35:32.252Z,101045.88
2023-05-24T18:37:59.197Z,101038.75
2023-05-24T18:40:26.100Z,101039.34
2023-05-24T18:42:52.954Z,101031.31
2023-05-24T18:45:19.819Z,101031.88
2023-05-24T18:47:46.862Z,101020.91
2023-05-24T18:50:13.917Z,101030.25
2023-05-24T18:52:40.812Z,101027.13
2023-05-24T18:55:10.884Z,101030.59
2023-05-24T18:57:38.541Z,101035.19
2023-05-24T19:00:06.984Z,101035.53
2023-05-24T19:02:40.472Z,101032.69
2023-05-24T19:05:08.293Z,101036.41
2023-05-24T19:07:36.146Z,101026.22
2023-05-24T19:10:04.166Z,101032.19
2023-05-24T19:12:31.159Z,101040.56
2023-05-24T19:14:58.010Z,101037.06
2023-05-24T19:17:25.368Z,101034.16
2023-05-24T19:19:52.451Z,101035.41
2023-05-24T19:22:19.581Z,101033.00
2023-05-24T19:24:47.006Z,101039.84
2023-05-24T19:27:14.111Z,101041.75
2023-05-24T19:29:41.284Z,101042.09
2023-05-24T19:32:08.475Z,101037.59
2023-05-24T19:34:37.392Z,101038.72
2023-05-24T19:37:04.594Z,101042.56
2023-05-24T19:39:31.435Z,101033.50
2023-05-24T19:41:58.270Z,101035.22
2023-05-24T19:44:25.049Z,101034.50
2023-05-24T19:46:51.944Z,101045.72
2023-05-24T19:49:18.745Z,101039.72
2023-05-24T19:51:45.698Z,101047.81
2023-05-24T19:54:12.967Z,101047.69
2023-05-24T19:56:39.840Z,101056.63
2023-05-24T19:59:07.399Z,101058.50
2023-05-24T20:01:34.412Z,101059.47
2023-05-24T20:04:01.522Z,101060.03
2023-05-24T20:06:28.674Z,101069.13
2023-05-24T20:08:58.139Z,101067.13
2023-05-24T20:11:27.478Z,101068.63
2023-05-24T20:13:55.882Z,101073.72
2023-05-24T20:16:23.091Z,101079.38
2023-05-24T20:18:50.202Z,101085.59
2023-05-24T20:21:18.555Z,101092.88
2023-05-24T20:23:45.669Z,101086.63
2023-05-24T20:26:12.515Z,101083.94
2023-05-24T20:28:39.385Z,101092.41
2023-05-24T20:31:06.601Z,101099.13
2023-05-24T20:33:37.890Z,101090.31
2023-05-24T20:36:05.515Z,101103.38
2023-05-24T20:38:32.486Z,101105.84
2023-05-24T20:40:59.963Z,101103.38
2023-05-24T20:43:26.856Z,101103.13
2023-05-24T20:45:54.329Z,101110.75
2023-05-24T20:48:21.319Z,101111.84
2023-05-24T20:50:48.341Z,101117.69
2023-05-24T20:53:15.212Z,101109.94
2023-05-24T20:55:42.197Z,101110.31
2023-05-24T20:58:09.212Z,101113.38
2023-05-24T21:00:37.590Z,101116.53
2023-05-24T21:03:06.326Z,101117.13
2023-05-24T21:05:36.355Z,101117.13
2023-05-24T21:08:03.874Z,101119.59
2023-05-24T21:10:31.004Z,101120.75
2023-05-24T21:12:58.107Z,101117.59
2023-05-24T21:15:25.070Z,101112.91
2023-05-24T21:17:51.938Z,101108.31
2023-05-24T21:20:18.802Z,101116.66
2023-05-24T21:22:46.174Z,101107.50
2023-05-24T21:25:13.068Z,101110.53
2023-05-24T21:27:39.928Z,101101.75
2023-05-24T21:30:07.541Z,101105.38
2023-05-24T21:32:34.407Z,101099.75
2023-05-24T21:35:01.208Z,101101.84
2023-05-24T21:37:28.034Z,101102.94
2023-05-24T21:39:54.847Z,101108.44
2023-05-24T21:42:21.663Z,101108.53
2023-05-24T21:44:48.399Z,101112.94
2023-05-24T21:47:15.381Z,101119.09
2023-05-24T21:49:42.238Z,101119.31
2023-05-24T21:52:09.000Z,101119.66
2023-05-24T21:54:35.801Z,101116.75
2023-05-24T21:57:02.730Z,101119.78
2023-05-24T21:59:29.542Z,101115.34
2023-05-24T22:01:56.414Z,101116.47
2023-05-24T22:04:23.383Z,101111.06
2023-05-24T22:06:50.379Z,101112.66
2023-05-24T22:09:17.253Z,101118.25
2023-05-24T22:11:44.276Z,101113.13
2023-05-24T22:14:11.144Z,101110.75
2023-05-24T22:16:38.102Z,101114.47
2023-05-24T22:19:14.873Z,101116.06
2023-05-24T22:21:43.667Z,101117.63
2023-05-24T22:24:10.803Z,101117.63
2023-05-24T22:26:38.270Z,101115.31
2023-05-24T22:29:05.186Z,101114.06
2023-05-24T22:31:33.636Z,101119.78
2023-05-24T22:34:03.967Z,101128.50
2023-05-24T22:36:33.734Z,101118.06
2023-05-24T22:39:01.681Z,101126.47
2023-05-24T22:41:28.907Z,101127.97
2023-05-24T22:43:56.784Z,101131.19
2023-05-24T22:46:24.209Z,101125.50
2023-05-24T22:48:58.083Z,101138.41
2023-05-24T22:51:26.233Z,101138.16
2023-05-24T22:53:53.034Z,101133.06
2023-05-24T22:56:28.747Z,101139.03
2023-05-24T22:58:56.730Z,101142.56
2023-05-24T23:01:23.614Z,101140.09
2023-05-24T23:03:50.701Z,101141.69
2023-05-24T23:06:17.608Z,101145.84
2023-05-24T23:08:44.458Z,101147.13
2023-05-24T23:11:11.330Z,101146.44
2023-05-24T23:13:38.229Z,101139.50
2023-05-24T23:16:05.611Z,101141.16
2023-05-24T23:18:33.108Z,101145.66
2023-05-24T23:21:03.220Z,101147.66
2023-05-24T23:23:30.292Z,101146.75
2023-05-24T23:25:57.154Z,101136.13
2023-05-24T23:28:24.040Z,101134.69
2023-05-24T23:30:50.925Z,101137.31
2023-05-24T23:33:17.720Z,101138.47
2023-05-24T23:35:45.020Z,101147.53
2023-05-24T23:38:16.087Z,101147.72
2023-05-24T23:40:43.009Z,101151.50
2023-05-24T23:43:09.836Z,101154.78
2023-05-24T23:45:36.677Z,101142.78
2023-05-24T23:48:03.781Z,101143.38
2023-05-24T23:50:35.041Z,101138.38
2023-05-24T23:53:07.793Z,101129.38
2023-05-24T23:55:34.675Z,101130.38
2023-05-24T23:58:01.536Z,101128.72
